MSC Levina — 3FJR8 — position and weather

sailwx.info

Track history (hours):
 
Tides and Currents Weather Stations Pressure Air Temp Water Temp Dewpoint Dewpoint Depression Visibility Wind Speed Wind Dir Waves Ship Positions

MSC Levina

Last reported at 2017-Oct-18 05:03 UTC. Time now 2017-Oct-19 07:27 UTC.
Position N 33°55' E 134°58'.

Length 227.6 m; beam 32.2 m; draft 12.1 m.

Type: Ship. MMSI: 355609000.

Date/timePositionNaut miles runAvg speedWind from/ knotsBaromVisibWave heightAir tempDewpointWater temp
2017-Oct-18 05:03N 33°55' E 134°58'118.0
2017-Oct-18 04:59N 33°56' E 134°58'918.1
2017-Oct-18 04:30N 34°04' E 134°57'816.1
2017-Oct-18 04:00N 34°13' E 134°57'713.7
2017-Oct-18 03:28N 34°20' E 134°59'714.3
2017-Oct-18 02:59N 34°25' E 135°03'715.4
2017-Oct-18 02:31N 34°30' E 135°10'815.1
2017-Oct-18 02:01N 34°35' E 135°18'612.7
2017-Oct-18 01:30N 34°39' E 135°24'1 1.2
2017-Oct-18 01:00N 34°39' E 135°24'0 0.0
2017-Oct-18 00:17N 34°39' E 135°24'0 0.0
2017-Oct-17 23:53N 34°39' E 135°24'0 0.0
2017-Oct-17 23:29N 34°39' E 135°24'0 0.0
2017-Oct-17 22:53N 34°39' E 135°24'0 0.0
2017-Oct-17 22:23N 34°39' E 135°24'0 0.0
2017-Oct-17 21:59N 34°39' E 135°24'0 0.0
2017-Oct-17 21:29N 34°39' E 135°24'0 0.0
2017-Oct-17 20:59N 34°39' E 135°24'0 0.0
2017-Oct-17 20:29N 34°39' E 135°24'0 0.0
2017-Oct-17 19:53N 34°39' E 135°24'0 0.0
2017-Oct-17 19:23N 34°39' E 135°24'0 0.0
2017-Oct-17 18:59N 34°39' E 135°24'0 0.0
2017-Oct-17 18:29N 34°39' E 135°24'0 0.0
2017-Oct-17 17:59N 34°39' E 135°24'0 0.0
2017-Oct-17 17:29N 34°39' E 135°24'0 0.0
2017-Oct-17 16:59N 34°39' E 135°24'0 0.0
2017-Oct-17 16:23N 34°39' E 135°24'0 0.0
2017-Oct-17 15:59N 34°39' E 135°24'0 0.0
2017-Oct-17 15:17N 34°39' E 135°24'0 0.0
2017-Oct-17 15:00N 34°39' E 135°24'1 2.6
2017-Oct-17 14:30N 34°38' E 135°23'4 8.9
2017-Oct-17 14:00N 34°37' E 135°18'4 8.7
2017-Oct-17 13:30N 34°40' E 135°15'0 0.6
2017-Oct-17 13:00N 34°40' E 135°14'0 0.0
2017-Oct-17 12:30N 34°40' E 135°14'0 0.0
2017-Oct-17 11:58N 34°40' E 135°14'0 0.0
2017-Oct-17 11:28N 34°40' E 135°14'0 0.0
2017-Oct-17 10:58N 34°40' E 135°14'0 0.0
2017-Oct-17 10:28N 34°40' E 135°14'0 0.0
2017-Oct-17 09:58N 34°40' E 135°14'0 0.0
2017-Oct-17 09:28N 34°40' E 135°14'0 0.0
2017-Oct-17 08:52N 34°40' E 135°14'0 0.0
2017-Oct-17 08:28N 34°40' E 135°14'0 0.0
2017-Oct-17 07:58N 34°40' E 135°14'0 0.0
2017-Oct-17 07:28N 34°40' E 135°14'0 0.0
2017-Oct-17 06:52N 34°40' E 135°14'0 0.0
2017-Oct-17 06:22N 34°40' E 135°14'0 0.0
2017-Oct-17 05:58N 34°40' E 135°14'0 0.0
2017-Oct-17 05:22N 34°40' E 135°14'0 0.5
2017-Oct-17 05:01N 34°40' E 135°14'3 6.9
2017-Oct-17 04:30N 34°37' E 135°17'612.5
2017-Oct-17 04:00N 34°32' E 135°13'713.9
2017-Oct-17 03:30N 34°26' E 135°08'713.3
2017-Oct-17 02:59N 34°21' E 135°03'612.2
2017-Oct-17 02:30N 34°16' E 134°59'611.7
2017-Oct-17 02:00N 34°10' E 134°60'510.2
2017-Oct-17 01:30N 34°05' E 134°59'5 9.9
2017-Oct-17 01:00N 34°00' E 134°58'6 9.5
2017-Oct-17 00:26N 33°55' E 134°56'  
2017-Oct-08 22:22N 34°46' E 139°13'412.6
2017-Oct-08 22:00N 34°50' E 139°16'611.9
2017-Oct-08 21:29N 34°53' E 139°22'612.1
2017-Oct-08 20:59N 34°57' E 139°27'611.6
2017-Oct-08 20:30N 35°00' E 139°33'611.8
2017-Oct-08 20:00N 35°04' E 139°39'611.9
2017-Oct-08 19:30N 35°08' E 139°44'611.4
2017-Oct-08 19:00N 35°13' E 139°46'510.6
2017-Oct-08 18:30N 35°18' E 139°44'612.3
2017-Oct-08 18:01N 35°24' E 139°43'3 6.9
2017-Oct-08 17:30N 35°28' E 139°42'0 0.4
2017-Oct-08 17:00N 35°28' E 139°42'0 0.0
2017-Oct-08 16:28N 35°28' E 139°42'0 0.0
2017-Oct-08 15:58N 35°28' E 139°42'0 0.0
2017-Oct-08 15:28N 35°28' E 139°42'0 0.0
2017-Oct-08 14:58N 35°28' E 139°42'0 0.0
2017-Oct-08 14:28N 35°28' E 139°42'0 0.0
2017-Oct-08 13:58N 35°28' E 139°42'0 0.0
2017-Oct-08 13:28N 35°28' E 139°42'0 0.0
2017-Oct-08 12:58N 35°28' E 139°42'0 0.0
2017-Oct-08 12:28N 35°28' E 139°42'0 0.0
2017-Oct-08 11:58N 35°28' E 139°42'0 0.0
2017-Oct-08 11:28N 35°28' E 139°42'0 0.0
2017-Oct-08 10:58N 35°28' E 139°42'0 0.0
2017-Oct-08 10:28N 35°28' E 139°42'0 0.0
2017-Oct-08 09:58N 35°28' E 139°42'0 0.0
2017-Oct-08 09:28N 35°28' E 139°42'0 0.9
2017-Oct-08 09:01N 35°28' E 139°42'2 4.0
2017-Oct-08 08:31N 35°27' E 139°44'4 8.7
2017-Oct-08 08:00N 35°29' E 139°49'611.6
2017-Oct-08 07:30N 35°34' E 139°49'3 5.5
2017-Oct-08 07:00N 35°37' E 139°47'0 0.0
2017-Oct-08 06:28N 35°37' E 139°47'0 0.0
2017-Oct-08 05:58N 35°37' E 139°47'0 0.0
2017-Oct-08 05:22N 35°37' E 139°47'  
Track history (hours):
 
Tides and Currents Weather Stations Pressure Air Temp Water Temp Dewpoint Dewpoint Depression Visibility Wind Speed Wind Dir Waves Ship Positions

MSC Levina

Last reported at 2017-Oct-18 05:03 UTC. Time now 2017-Oct-19 07:27 UTC.
Position N 33°55' E 134°58'.

Length 227.6 m; beam 32.2 m; draft 12.1 m.

Type: Ship. MMSI: 355609000.

Date/timePositionNaut miles runAvg speedWind from/ knotsBaromVisibWave heightAir tempDewpointWater temp
2017-Oct-18 05:03N 33°55' E 134°58'118.0
2017-Oct-18 04:59N 33°56' E 134°58'918.1
2017-Oct-18 04:30N 34°04' E 134°57'816.1
2017-Oct-18 04:00N 34°13' E 134°57'713.7
2017-Oct-18 03:28N 34°20' E 134°59'714.3
2017-Oct-18 02:59N 34°25' E 135°03'715.4
2017-Oct-18 02:31N 34°30' E 135°10'815.1
2017-Oct-18 02:01N 34°35' E 135°18'612.7
2017-Oct-18 01:30N 34°39' E 135°24'1 1.2
2017-Oct-18 01:00N 34°39' E 135°24'0 0.0
2017-Oct-18 00:17N 34°39' E 135°24'0 0.0
2017-Oct-17 23:53N 34°39' E 135°24'0 0.0
2017-Oct-17 23:29N 34°39' E 135°24'0 0.0
2017-Oct-17 22:53N 34°39' E 135°24'0 0.0
2017-Oct-17 22:23N 34°39' E 135°24'0 0.0
2017-Oct-17 21:59N 34°39' E 135°24'0 0.0
2017-Oct-17 21:29N 34°39' E 135°24'0 0.0
2017-Oct-17 20:59N 34°39' E 135°24'0 0.0
2017-Oct-17 20:29N 34°39' E 135°24'0 0.0
2017-Oct-17 19:53N 34°39' E 135°24'0 0.0
2017-Oct-17 19:23N 34°39' E 135°24'0 0.0
2017-Oct-17 18:59N 34°39' E 135°24'0 0.0
2017-Oct-17 18:29N 34°39' E 135°24'0 0.0
2017-Oct-17 17:59N 34°39' E 135°24'0 0.0
2017-Oct-17 17:29N 34°39' E 135°24'0 0.0
2017-Oct-17 16:59N 34°39' E 135°24'0 0.0
2017-Oct-17 16:23N 34°39' E 135°24'0 0.0
2017-Oct-17 15:59N 34°39' E 135°24'0 0.0
2017-Oct-17 15:17N 34°39' E 135°24'0 0.0
2017-Oct-17 15:00N 34°39' E 135°24'1 2.6
2017-Oct-17 14:30N 34°38' E 135°23'4 8.9
2017-Oct-17 14:00N 34°37' E 135°18'4 8.7
2017-Oct-17 13:30N 34°40' E 135°15'0 0.6
2017-Oct-17 13:00N 34°40' E 135°14'0 0.0
2017-Oct-17 12:30N 34°40' E 135°14'0 0.0
2017-Oct-17 11:58N 34°40' E 135°14'0 0.0
2017-Oct-17 11:28N 34°40' E 135°14'0 0.0
2017-Oct-17 10:58N 34°40' E 135°14'0 0.0
2017-Oct-17 10:28N 34°40' E 135°14'0 0.0
2017-Oct-17 09:58N 34°40' E 135°14'0 0.0
2017-Oct-17 09:28N 34°40' E 135°14'0 0.0
2017-Oct-17 08:52N 34°40' E 135°14'0 0.0
2017-Oct-17 08:28N 34°40' E 135°14'0 0.0
2017-Oct-17 07:58N 34°40' E 135°14'0 0.0
2017-Oct-17 07:28N 34°40' E 135°14'0 0.0
2017-Oct-17 06:52N 34°40' E 135°14'0 0.0
2017-Oct-17 06:22N 34°40' E 135°14'0 0.0
2017-Oct-17 05:58N 34°40' E 135°14'0 0.0
2017-Oct-17 05:22N 34°40' E 135°14'0 0.5
2017-Oct-17 05:01N 34°40' E 135°14'3 6.9
2017-Oct-17 04:30N 34°37' E 135°17'612.5
2017-Oct-17 04:00N 34°32' E 135°13'713.9
2017-Oct-17 03:30N 34°26' E 135°08'713.3
2017-Oct-17 02:59N 34°21' E 135°03'612.2
2017-Oct-17 02:30N 34°16' E 134°59'611.7
2017-Oct-17 02:00N 34°10' E 134°60'510.2
2017-Oct-17 01:30N 34°05' E 134°59'5 9.9
2017-Oct-17 01:00N 34°00' E 134°58'6 9.5
2017-Oct-17 00:26N 33°55' E 134°56'  
2017-Oct-08 22:22N 34°46' E 139°13'412.6
2017-Oct-08 22:00N 34°50' E 139°16'611.9
2017-Oct-08 21:29N 34°53' E 139°22'612.1
2017-Oct-08 20:59N 34°57' E 139°27'611.6
2017-Oct-08 20:30N 35°00' E 139°33'611.8
2017-Oct-08 20:00N 35°04' E 139°39'611.9
2017-Oct-08 19:30N 35°08' E 139°44'611.4
2017-Oct-08 19:00N 35°13' E 139°46'510.6
2017-Oct-08 18:30N 35°18' E 139°44'612.3
2017-Oct-08 18:01N 35°24' E 139°43'3 6.9
2017-Oct-08 17:30N 35°28' E 139°42'0 0.4
2017-Oct-08 17:00N 35°28' E 139°42'0 0.0
2017-Oct-08 16:28N 35°28' E 139°42'0 0.0
2017-Oct-08 15:58N 35°28' E 139°42'0 0.0
2017-Oct-08 15:28N 35°28' E 139°42'0 0.0
2017-Oct-08 14:58N 35°28' E 139°42'0 0.0
2017-Oct-08 14:28N 35°28' E 139°42'0 0.0
2017-Oct-08 13:58N 35°28' E 139°42'0 0.0
2017-Oct-08 13:28N 35°28' E 139°42'0 0.0
2017-Oct-08 12:58N 35°28' E 139°42'0 0.0
2017-Oct-08 12:28N 35°28' E 139°42'0 0.0
2017-Oct-08 11:58N 35°28' E 139°42'0 0.0
2017-Oct-08 11:28N 35°28' E 139°42'0 0.0
2017-Oct-08 10:58N 35°28' E 139°42'0 0.0
2017-Oct-08 10:28N 35°28' E 139°42'0 0.0
2017-Oct-08 09:58N 35°28' E 139°42'0 0.0
2017-Oct-08 09:28N 35°28' E 139°42'0 0.9
2017-Oct-08 09:01N 35°28' E 139°42'2 4.0
2017-Oct-08 08:31N 35°27' E 139°44'4 8.7
2017-Oct-08 08:00N 35°29' E 139°49'611.6
2017-Oct-08 07:30N 35°34' E 139°49'3 5.5
2017-Oct-08 07:00N 35°37' E 139°47'0 0.0
2017-Oct-08 06:28N 35°37' E 139°47'0 0.0
2017-Oct-08 05:58N 35°37' E 139°47'0 0.0
2017-Oct-08 05:22N 35°37' E 139°47'  

Dump ship's entire track history